Lemoore Naval Air Station (Reeves Field) Airport Lemoore US
ICAO: KNLC
IATA: NLC
Category: Medium
Scheduled Services: No

Elevation: 232 ft
TransAlt. 18000 ft.

Airport Communications:
APP:118.15
ATIS:26.76
CLNC DEL:124.1
DEP:118.15
GND:121.65
BASE OPS:29.93
PMSV METRO:31.7
TWR:128.3

KNLC Zoom In..

Runways:

(A) RW 14L length 13500 ft width 200 ft
---- / hdg 142

(B) RW 14R length 13497 ft width 200 ft
---- / hdg 142

(C) RW 32L length 13497 ft width 200 ft
---- / hdg 322

(D) RW 32R length 13500 ft width 200 ft
---- / hdg 322

Location; KNLC
Day. 20 / Time. 19.56 Zulu
* Altimeter: 29.84
* Temperature: 37° c. 98.6°f.
* Wind from: 020° Speed 05 kn.
Dewpoint: 10° c.
Visibility: 10 Statute Miles.
Clouds: Few 2000 ft.

KNLC 201956Z 02005KT 10SM FEW200 37/10 A2984 RMK AO2 SLP103 RH/18 T03720100


Wind From 020°
Speed 05 kn.

 
 
jpsmedia.com for Web Design worldairports.se 2018   terms of use